Flight Track Log - Related Links

Times and Time Zones

All times are in EDT time to prevent confusion due to time zone crossing. See the PCO452 flight status page for this flight to view local times or setup timezone preferences in your user account.


Time Position Orientation Groundspeed Altitude Reporting Facility
EDT Latitude Longitude Course Direction KTS MPH feet Rate Location/Type
Wed 01:04:33 PM 49.1167 -117.9000 287° West 170 196 11,500  Level Vancouver Center
Wed 01:05:33 PM 49.1333 -117.9833 287° West 180 207 13,600 1,850 Climbing Vancouver Center
Wed 01:06:33 PM 49.1500 -118.0500 291° West 190 219 15,200 1,600 Climbing Vancouver Center
Wed 01:07:33 PM 49.1333 -118.1667 258° West 200 230 16,800 1,450 Climbing Vancouver Center
Wed 01:08:33 PM 49.1500 -118.2333 291° West 190 219 18,100 900 Climbing Vancouver Center
Wed 01:09:33 PM 49.1500 -118.3167 270° West 190 219 18,600 800 Climbing Vancouver Center
Wed 01:10:33 PM 49.1667 -118.3833 291° West 180 207 19,700 700 Climbing Vancouver Center
Wed 01:11:33 PM 49.1833 -118.4667 287° West 190 219 20,000 150 Climbing Vancouver Center
Wed 01:12:33 PM 49.1833 -118.5667 270° West 210 242 20,000  Level Vancouver Center
Wed 01:13:33 PM 49.2000 -118.6333 291° West 220 253 20,000  Level Vancouver Center
Wed 01:14:33 PM 49.2167 -118.7333 284° West 220 253 20,000  Level Vancouver Center
Wed 01:15:33 PM 49.2167 -118.8333 270° West 230 265 20,000  Level Vancouver Center
Wed 01:16:33 PM 49.2333 -118.9333 284° West 230 265 20,000  Level Vancouver Center
Wed 01:17:33 PM 49.2333 -119.0167 270° West 230 265 20,000  Level Vancouver Center
Wed 01:18:33 PM 49.2500 -119.1167 284° West 230 265 20,000  Level Vancouver Center
Wed 01:19:33 PM 49.2667 -119.2167 284° West 230 265 20,000  Level Vancouver Center
Wed 01:20:33 PM 49.2667 -119.3167 270° West 230 265 20,000  Level Vancouver Center
Wed 01:21:33 PM 49.2667 -119.4167 270° West 230 265 20,000  Level Vancouver Center
Wed 01:22:33 PM 49.2833 -119.5000 287° West 230 265 20,000  Level Vancouver Center
Wed 01:23:33 PM 49.3000 -119.6000 284° West 230 265 20,000  Level Vancouver Center
Wed 01:24:33 PM 49.3000 -119.7000 270° West 230 265 20,000  Level Vancouver Center
Wed 01:25:33 PM 49.3167 -119.7833 287° West 230 265 20,000  Level Vancouver Center
Wed 01:26:33 PM 49.3167 -119.8833 270° West 230 265 20,000  Level Vancouver Center
Wed 01:27:33 PM 49.3333 -119.9833 284° West 230 265 20,000  Level Vancouver Center
Wed 01:28:33 PM 49.3500 -120.0833 284° West 230 265 20,000  Level Vancouver Center
Wed 01:29:33 PM 49.3500 -120.1833 270° West 230 265 20,000  Level Vancouver Center
Wed 01:30:33 PM 49.3667 -120.2667 287° West 230 265 20,000  Level Vancouver Center
Wed 01:31:33 PM 49.3667 -120.3667 270° West 230 265 20,000  Level Vancouver Center
Wed 01:32:33 PM 49.3667 -120.4667 270° West 230 265 20,000  Level Vancouver Center
Wed 01:33:33 PM 49.3833 -120.5667 284° West 230 265 20,000  Level Vancouver Center
Wed 01:34:33 PM 49.4000 -120.6500 287° West 230 265 20,000  Level Vancouver Center
Wed 01:35:33 PM 49.4000 -120.7500 270° West 230 265 20,000  Level Vancouver Center
Wed 01:36:33 PM 49.4167 -120.8500 284° West 230 265 20,000  Level Vancouver Center
Wed 01:37:33 PM 49.4167 -120.9500 270° West 240 276 20,000  Level Vancouver Center
Wed 01:38:33 PM 49.4333 -121.0500 284° West 230 265 20,000  Level Vancouver Center
Wed 01:39:33 PM 49.4333 -121.1500 270° West 230 265 20,000  Level Vancouver Center
Wed 01:40:33 PM 49.4500 -121.2500 284° West 230 265 20,000 -250 Level Vancouver Center
Wed 01:41:33 PM 49.4500 -121.3333 270° West 230 265 19,500 -800 Descending Vancouver Center
Wed 01:42:33 PM 49.4667 -121.4667 281° West 250 288 18,400 -850 Descending Vancouver Center
Wed 01:43:33 PM 49.4667 -121.5667 270° West 260 299 17,800 -933 Descending Vancouver Center
Wed 01:45:33 PM 49.4833 -121.8000 276° West 270 311 15,600 -1,100 Descending Vancouver Center
Wed 01:46:33 PM 49.4833 -121.9167 270° West 270 311 14,500 -1,200 Descending Vancouver Center
Wed 01:47:33 PM 49.5000 -122.0333 282° West 270 311 13,200 -1,200 Descending Vancouver Center
Wed 01:48:33 PM 49.4667 -122.1333 243° Southwest 280 322 12,100 -1,250 Descending Vancouver Center
Wed 01:49:33 PM 49.4333 -122.2333 243° Southwest 280 322 10,700 -1,050 Descending Vancouver Center
Wed 01:50:33 PM 49.4000 -122.3333 243° Southwest 280 322 10,000 -350 Descending Vancouver Center
Wed 01:51:33 PM 49.3500 -122.4333 233° Southwest 260 299 10,000  Level Vancouver Center
Wed 01:52:33 PM 49.3167 -122.5167 238° Southwest 250 288 10,000  Level Vancouver Center
Wed 01:53:33 PM 49.2833 -122.6167 243° Southwest 250 288 10,000  Level Vancouver Center
Wed 01:54:33 PM 49.2500 -122.7333 246° West 240 276 10,000  Level Vancouver Center
Wed 01:55:33 PM 49.2333 -122.8000 249° West 240 276 10,000  Level Vancouver Center
Wed 01:56:33 PM 49.2333 -122.9000 270° West 240 276 10,000  Level Vancouver Center
Wed 01:57:33 PM 49.2333 -123.0000 270° West 240 276 10,000 -300 Level Vancouver Center
Wed 01:58:33 PM 49.2500 -123.1167 282° West 230 265 9,400 -1,100 Descending Vancouver Center
Wed 01:59:33 PM 49.2500 -123.2167 270° West 220 253 7,800 -1,650 Descending Vancouver Center
Wed 02:00:33 PM 49.2167 -123.2667 224° Southwest 220 253 6,100 -1,750 Descending Vancouver Center
Wed 02:01:33 PM 49.1667 -123.3167 213° Southwest 210 242 4,300 -1,700 Descending Vancouver Center
Wed 02:02:33 PM 49.1333 -123.3667 224° Southwest 200 230 2,700 -1,100 Descending Vancouver Center
Wed 02:03:33 PM 49.1667 -123.3333 33° Northeast 170 196 2,100 -700 Descending Vancouver Center
Wed 02:04:33 PM 49.1833 -123.2833 63° Northeast 150 173 1,300 -800 Descending Vancouver Center
Wed 02:05:33 PM 49.1667 -123.2333 117° Southeast 140 161 500 -800 Descending Vancouver Center

Login

Don't have an account? Register now (free) for customized features, flight alerts, and more!